createdAt,value
2022-11-14T00:00:02.437Z,11.30
2022-11-14T00:01:02.443Z,10.80
2022-11-14T00:02:02.435Z,10.20
2022-11-14T00:03:02.506Z,11.10
2022-11-14T00:04:02.462Z,11.30
2022-11-14T00:05:02.474Z,10.70
2022-11-14T00:06:02.375Z,10.60
2022-11-14T00:07:02.423Z,10.60
2022-11-14T00:08:02.489Z,11.00
2022-11-14T00:09:02.392Z,10.90
2022-11-14T00:10:02.403Z,11.20
2022-11-14T00:11:02.349Z,12.20
2022-11-14T00:12:02.325Z,11.60
2022-11-14T00:13:02.286Z,10.90
2022-11-14T00:14:02.291Z,10.50
2022-11-14T00:15:02.315Z,10.70
2022-11-14T00:16:02.360Z,11.60
2022-11-14T00:17:02.246Z,11.80
2022-11-14T00:18:02.239Z,11.20
2022-11-14T00:19:02.236Z,11.40
2022-11-14T00:20:02.234Z,10.00
2022-11-14T00:21:02.206Z,11.10
2022-11-14T00:22:02.198Z,11.20
2022-11-14T00:23:02.187Z,11.20
2022-11-14T00:24:02.521Z,11.40
2022-11-14T00:25:02.159Z,10.30
2022-11-14T00:26:02.164Z,10.40
2022-11-14T00:27:02.147Z,12.70
2022-11-14T00:28:02.223Z,11.00
2022-11-14T00:29:02.174Z,10.80
2022-11-14T00:30:02.145Z,11.30
2022-11-14T00:31:02.107Z,10.90
2022-11-14T00:32:02.103Z,11.70
2022-11-14T00:33:02.082Z,11.80
2022-11-14T00:34:02.126Z,11.00
2022-11-14T00:35:02.070Z,10.80
2022-11-14T00:36:02.081Z,11.90
2022-11-14T00:37:02.064Z,10.90
2022-11-14T00:38:02.071Z,11.60
2022-11-14T00:39:02.027Z,11.40
2022-11-14T00:40:02.003Z,10.80
2022-11-14T00:41:01.991Z,11.60
2022-11-14T00:42:02.001Z,11.10
2022-11-14T00:43:01.986Z,12.70
2022-11-14T00:44:02.032Z,11.00
2022-11-14T00:45:01.957Z,12.20
2022-11-14T00:46:01.945Z,11.40
2022-11-14T00:47:01.930Z,11.50
2022-11-14T00:48:01.926Z,11.20
2022-11-14T00:49:01.924Z,11.20
2022-11-14T00:50:01.980Z,11.90
2022-11-14T00:51:01.890Z,10.90
2022-11-14T00:52:01.880Z,11.20
2022-11-14T00:53:01.869Z,11.50
2022-11-14T00:54:01.894Z,11.00
2022-11-14T00:55:01.962Z,11.80
2022-11-14T00:56:01.840Z,11.40
2022-11-14T00:57:01.823Z,10.30
2022-11-14T00:58:01.819Z,12.10
2022-11-14T00:59:01.812Z,11.40
2022-11-14T01:00:01.807Z,11.50
2022-11-14T01:01:01.990Z,10.90
2022-11-14T01:02:01.829Z,11.00
2022-11-14T01:03:01.822Z,12.00
2022-11-14T01:04:01.760Z,11.90
2022-11-14T01:05:01.742Z,11.10
2022-11-14T01:06:01.740Z,11.80
2022-11-14T01:07:01.762Z,12.40
2022-11-14T01:08:01.743Z,11.70
2022-11-14T01:09:01.781Z,11.80
2022-11-14T01:10:01.699Z,12.70
2022-11-14T01:11:07.808Z,11.70
2022-11-14T01:12:01.823Z,11.80
2022-11-14T01:13:01.677Z,11.40
2022-11-14T01:14:02.365Z,11.80
2022-11-14T01:15:01.680Z,11.80
2022-11-14T01:16:01.691Z,12.60
2022-11-14T01:17:01.616Z,13.20
2022-11-14T01:18:01.645Z,11.80
2022-11-14T01:19:01.594Z,12.60
2022-11-14T01:20:01.603Z,11.70
2022-11-14T01:21:01.589Z,11.70
2022-11-14T01:22:05.929Z,12.60
2022-11-14T01:23:01.577Z,11.30
2022-11-14T01:24:01.557Z,11.50
2022-11-14T01:25:01.557Z,11.50
2022-11-14T01:26:01.531Z,13.20
2022-11-14T01:27:01.535Z,11.60
2022-11-14T01:28:01.537Z,12.90
2022-11-14T01:29:01.497Z,11.50
2022-11-14T01:30:01.489Z,11.60
2022-11-14T01:31:01.509Z,11.90
2022-11-14T01:32:01.488Z,12.60
2022-11-14T01:33:01.464Z,13.10
2022-11-14T01:34:01.463Z,12.00
2022-11-14T01:35:01.438Z,11.80
2022-11-14T01:36:01.425Z,11.90
2022-11-14T01:37:01.439Z,11.50
2022-11-14T01:38:01.436Z,11.70
2022-11-14T01:39:01.400Z,12.20
2022-11-14T01:40:01.386Z,11.00
2022-11-14T01:41:01.365Z,12.00
2022-11-14T01:42:01.360Z,11.90
2022-11-14T01:43:01.369Z,13.30
2022-11-14T01:44:01.376Z,12.00
2022-11-14T01:45:01.327Z,11.70
2022-11-14T01:46:01.323Z,12.00
2022-11-14T01:47:01.311Z,12.60
2022-11-14T01:48:01.336Z,11.70
2022-11-14T01:49:01.316Z,12.50
2022-11-14T01:50:01.274Z,11.60
2022-11-14T01:51:01.274Z,11.90
2022-11-14T01:52:01.282Z,10.50
2022-11-14T01:53:01.262Z,11.90
2022-11-14T01:54:01.262Z,11.70
2022-11-14T01:55:01.236Z,12.70
2022-11-14T01:56:01.214Z,12.40
2022-11-14T01:57:01.204Z,11.70
2022-11-14T01:58:01.205Z,12.20
2022-11-14T01:59:01.177Z,12.20
2022-11-14T02:00:01.188Z,11.70
2022-11-14T02:01:01.254Z,11.90
2022-11-14T02:02:01.157Z,11.00
2022-11-14T02:03:01.153Z,12.30
2022-11-14T02:04:02.016Z,12.90
2022-11-14T02:05:01.139Z,12.20
2022-11-14T02:06:01.111Z,11.40
2022-11-14T02:07:01.199Z,12.60
2022-11-14T02:08:01.106Z,11.10
2022-11-14T02:09:01.140Z,11.50
2022-11-14T02:10:01.090Z,12.00
2022-11-14T02:11:01.054Z,12.60
2022-11-14T02:12:01.076Z,11.40
2022-11-14T02:13:01.049Z,11.60
2022-11-14T02:14:01.053Z,12.40
2022-11-14T02:15:01.071Z,11.60
2022-11-14T02:16:01.017Z,13.50
2022-11-14T02:17:27.989Z,12.60
2022-11-14T02:18:01.042Z,12.30
2022-11-14T02:19:01.004Z,11.50
2022-11-14T02:20:05.094Z,13.00
2022-11-14T02:21:01.012Z,11.80
2022-11-14T02:22:01.002Z,11.30
2022-11-14T02:23:00.966Z,12.80
2022-11-14T02:24:00.925Z,11.00
2022-11-14T02:25:00.924Z,12.30
2022-11-14T02:26:00.912Z,11.60
2022-11-14T02:27:00.911Z,11.80
2022-11-14T02:28:00.964Z,12.50
2022-11-14T02:29:00.947Z,12.50
2022-11-14T02:30:00.908Z,11.60
2022-11-14T02:31:00.847Z,12.60
2022-11-14T02:32:00.892Z,11.10
2022-11-14T02:33:16.314Z,11.30
2022-11-14T02:34:00.898Z,12.50
2022-11-14T02:35:00.812Z,12.10
2022-11-14T02:36:00.803Z,11.00
2022-11-14T02:37:00.813Z,12.50
2022-11-14T02:38:00.795Z,11.50
2022-11-14T02:39:00.831Z,12.80
2022-11-14T02:40:00.857Z,11.50
2022-11-14T02:41:00.771Z,11.00
2022-11-14T02:42:00.859Z,11.70
2022-11-14T02:43:00.892Z,12.00
2022-11-14T02:44:00.716Z,11.70
2022-11-14T02:45:00.709Z,11.10
2022-11-14T02:46:05.351Z,11.70
2022-11-14T02:47:00.782Z,11.20
2022-11-14T02:48:00.689Z,10.80
2022-11-14T02:49:00.699Z,12.60
2022-11-14T02:50:00.703Z,12.60
2022-11-14T02:51:00.638Z,11.10
2022-11-14T02:52:00.669Z,10.70
2022-11-14T02:53:00.652Z,12.10
2022-11-14T02:54:00.654Z,11.60
2022-11-14T02:55:00.632Z,12.20
2022-11-14T02:56:00.645Z,11.60
2022-11-14T02:57:00.584Z,12.50
2022-11-14T02:58:00.643Z,12.20
2022-11-14T02:59:00.611Z,11.00
2022-11-14T03:00:00.671Z,10.80
2022-11-14T03:01:19.580Z,12.60
2022-11-14T03:02:00.642Z,10.90
2022-11-14T03:03:00.533Z,12.00
2022-11-14T03:04:00.577Z,10.60
2022-11-14T03:05:00.582Z,11.60
2022-11-14T03:06:00.558Z,12.10
2022-11-14T03:07:00.599Z,12.20
2022-11-14T03:08:00.465Z,12.00
2022-11-14T03:09:00.561Z,11.70
2022-11-14T03:10:00.538Z,11.10
2022-11-14T03:11:00.480Z,11.10
2022-11-14T03:12:00.532Z,12.00
2022-11-14T03:13:00.449Z,11.60
2022-11-14T03:14:00.398Z,11.90
2022-11-14T03:15:00.387Z,12.10
2022-11-14T03:16:00.404Z,11.50
2022-11-14T03:17:00.458Z,12.70
2022-11-14T03:18:00.384Z,11.60
2022-11-14T03:19:00.385Z,11.00
2022-11-14T03:20:00.342Z,11.20
2022-11-14T03:21:00.390Z,12.20
2022-11-14T03:22:00.520Z,11.40
2022-11-14T03:23:00.323Z,11.70
2022-11-14T03:24:00.326Z,11.70
2022-11-14T03:25:00.348Z,11.60
2022-11-14T03:26:00.355Z,10.20
2022-11-14T03:27:00.427Z,12.50
2022-11-14T03:28:00.262Z,11.70
2022-11-14T03:29:00.249Z,11.30
2022-11-14T03:30:00.383Z,12.20
2022-11-14T03:31:00.268Z,11.40
2022-11-14T03:32:00.267Z,12.00
2022-11-14T03:33:00.279Z,12.60
2022-11-14T03:34:00.187Z,12.40
2022-11-14T03:35:00.203Z,11.50
2022-11-14T03:36:00.194Z,11.70
2022-11-14T03:37:00.170Z,11.00
2022-11-14T03:38:00.217Z,12.30
2022-11-14T03:39:00.194Z,11.70
2022-11-14T03:40:00.178Z,11.20
2022-11-14T03:41:00.141Z,12.30
2022-11-14T03:42:00.239Z,11.50
2022-11-14T03:43:00.135Z,10.80
2022-11-14T03:44:00.131Z,10.70
2022-11-14T03:45:00.120Z,11.00
2022-11-14T03:46:00.070Z,11.40
2022-11-14T03:47:00.124Z,10.90
2022-11-14T03:48:00.045Z,11.70
2022-11-14T03:49:00.172Z,10.70
2022-11-14T03:50:00.080Z,10.60
2022-11-14T03:51:00.010Z,11.80
2022-11-14T03:52:00.100Z,11.30
2022-11-14T03:52:59.990Z,10.60
2022-11-14T03:54:00.009Z,11.30
2022-11-14T03:55:00.004Z,11.30
2022-11-14T03:55:59.958Z,12.30
2022-11-14T03:56:59.962Z,11.30
2022-11-14T03:57:59.963Z,12.60
2022-11-14T03:59:00.001Z,12.80
2022-11-14T03:59:59.949Z,10.60
2022-11-14T04:00:59.978Z,11.50
2022-11-14T04:02:00.025Z,11.80
2022-11-14T04:02:59.969Z,12.70
2022-11-14T04:03:59.878Z,11.10
2022-11-14T04:04:59.889Z,11.80
2022-11-14T04:05:59.861Z,12.20
2022-11-14T04:06:59.928Z,12.00
2022-11-14T04:07:59.920Z,12.10
2022-11-14T04:08:59.827Z,12.20
2022-11-14T04:09:59.834Z,11.60
2022-11-14T04:10:59.825Z,12.10
2022-11-14T04:11:59.826Z,11.10
2022-11-14T04:12:59.785Z,10.70
2022-11-14T04:13:59.781Z,10.60
2022-11-14T04:14:59.792Z,12.50
2022-11-14T04:15:59.758Z,11.80
2022-11-14T04:16:59.781Z,11.60
2022-11-14T04:17:59.741Z,12.20
2022-11-14T04:18:59.748Z,12.40
2022-11-14T04:19:59.721Z,11.30
2022-11-14T04:20:59.750Z,10.50
2022-11-14T04:21:59.743Z,10.70
2022-11-14T04:22:59.689Z,10.30
2022-11-14T04:23:59.686Z,11.50
2022-11-14T04:24:59.685Z,11.60
2022-11-14T04:25:59.703Z,11.20
2022-11-14T04:26:59.656Z,12.60
2022-11-14T04:27:59.635Z,11.80
2022-11-14T04:28:59.679Z,10.80
2022-11-14T04:29:59.608Z,11.70
2022-11-14T04:30:59.611Z,13.10
2022-11-14T04:31:59.607Z,11.70
2022-11-14T04:32:59.589Z,13.40
2022-11-14T04:33:59.567Z,12.10
2022-11-14T04:34:59.592Z,11.20
2022-11-14T04:35:59.548Z,12.40
2022-11-14T04:36:59.556Z,11.00
2022-11-14T04:37:59.550Z,11.70
2022-11-14T04:38:59.525Z,14.30
2022-11-14T04:39:59.503Z,14.80
2022-11-14T04:40:59.550Z,12.60
2022-11-14T04:41:59.491Z,11.70
2022-11-14T04:42:59.481Z,13.40
2022-11-14T04:43:59.508Z,12.30
2022-11-14T04:44:59.483Z,10.90
2022-11-14T04:45:59.446Z,11.30
2022-11-14T04:46:59.453Z,12.10
2022-11-14T04:47:59.438Z,11.60
2022-11-14T04:48:59.418Z,12.40
2022-11-14T04:49:59.396Z,11.20
2022-11-14T04:50:59.427Z,10.80
2022-11-14T04:51:59.396Z,11.30
2022-11-14T04:52:59.403Z,11.10
2022-11-14T04:53:59.359Z,12.10
2022-11-14T04:54:59.346Z,10.30
2022-11-14T04:55:59.346Z,12.00
2022-11-14T04:56:59.346Z,13.00
2022-11-14T04:57:59.308Z,12.80
2022-11-14T04:58:59.305Z,11.00
2022-11-14T04:59:59.303Z,12.70
2022-11-14T05:00:59.351Z,12.30
2022-11-14T05:01:59.293Z,12.60
2022-11-14T05:02:59.268Z,11.70
2022-11-14T05:03:59.247Z,11.90
2022-11-14T05:04:59.244Z,12.20
2022-11-14T05:05:59.237Z,11.90
2022-11-14T05:06:59.326Z,11.70
2022-11-14T05:07:59.208Z,11.90
2022-11-14T05:08:59.207Z,11.40
2022-11-14T05:09:59.221Z,12.60
2022-11-14T05:10:59.213Z,15.20
2022-11-14T05:11:59.169Z,10.90
2022-11-14T05:12:59.164Z,10.50
2022-11-14T05:13:59.146Z,11.40
2022-11-14T05:14:59.148Z,12.00
2022-11-14T05:15:59.143Z,12.70
2022-11-14T05:16:59.130Z,11.60
2022-11-14T05:17:59.134Z,11.00
2022-11-14T05:18:59.098Z,11.00
2022-11-14T05:19:59.089Z,12.00
2022-11-14T05:20:59.091Z,11.30
2022-11-14T05:21:59.060Z,11.50
2022-11-14T05:22:59.122Z,11.60
2022-11-14T05:23:59.050Z,11.40
2022-11-14T05:24:59.054Z,12.90
2022-11-14T05:25:59.043Z,11.00
2022-11-14T05:26:59.076Z,11.80
2022-11-14T05:27:59.000Z,11.40
2022-11-14T05:28:59.089Z,11.60
2022-11-14T05:29:59.055Z,12.20
2022-11-14T05:30:58.982Z,11.20
2022-11-14T05:31:59.006Z,10.70
2022-11-14T05:32:58.971Z,11.60
2022-11-14T05:33:58.958Z,10.80
2022-11-14T05:34:58.933Z,11.80
2022-11-14T05:35:58.936Z,10.90
2022-11-14T05:36:58.967Z,11.10
2022-11-14T05:38:00.132Z,10.50
2022-11-14T05:38:58.950Z,10.80
2022-11-14T05:39:58.881Z,11.20
2022-11-14T05:40:58.891Z,12.10
2022-11-14T05:41:59.004Z,10.90
2022-11-14T05:42:58.903Z,11.80
2022-11-14T05:43:58.850Z,10.40
2022-11-14T05:44:58.873Z,11.70
2022-11-14T05:45:58.880Z,11.10
2022-11-14T05:46:58.900Z,10.70
2022-11-14T05:47:58.837Z,11.30
2022-11-14T05:48:58.814Z,11.30
2022-11-14T05:49:58.770Z,12.00
2022-11-14T05:50:58.940Z,11.20
2022-11-14T05:51:58.744Z,11.60
2022-11-14T05:52:58.839Z,10.10
2022-11-14T05:53:58.735Z,12.50
2022-11-14T05:54:58.842Z,11.40
2022-11-14T05:55:58.762Z,12.10
2022-11-14T05:56:58.732Z,11.10
2022-11-14T05:57:58.643Z,11.30
2022-11-14T05:58:58.649Z,12.50
2022-11-14T05:59:58.673Z,10.20
2022-11-14T06:00:58.684Z,12.70
2022-11-14T06:01:58.707Z,11.80
2022-11-14T06:02:58.621Z,11.70
2022-11-14T06:03:58.578Z,11.30
2022-11-14T06:04:58.575Z,11.80
2022-11-14T06:05:58.601Z,11.10
2022-11-14T06:06:58.752Z,11.60
2022-11-14T06:07:58.532Z,12.10
2022-11-14T06:08:58.636Z,12.00
2022-11-14T06:09:58.529Z,11.90
2022-11-14T06:10:58.532Z,11.60
2022-11-14T06:11:58.541Z,11.30
2022-11-14T06:12:58.670Z,11.00
2022-11-14T06:13:58.569Z,10.50
2022-11-14T06:14:58.465Z,12.10
2022-11-14T06:15:58.564Z,10.40
2022-11-14T06:16:58.507Z,12.10
2022-11-14T06:17:58.624Z,12.40
2022-11-14T06:18:58.483Z,11.10
2022-11-14T06:19:58.410Z,11.80
2022-11-14T06:20:58.434Z,12.10
2022-11-14T06:21:58.543Z,11.40
2022-11-14T06:22:58.408Z,11.10
2022-11-14T06:23:58.446Z,12.70
2022-11-14T06:24:58.365Z,12.10
2022-11-14T06:25:58.427Z,10.50
2022-11-14T06:26:58.375Z,10.80
2022-11-14T06:27:58.327Z,11.90
2022-11-14T06:28:58.317Z,11.30
2022-11-14T06:29:58.323Z,11.50
2022-11-14T06:30:58.319Z,10.80
2022-11-14T06:31:58.314Z,11.00
2022-11-14T06:32:58.280Z,10.30
2022-11-14T06:33:58.257Z,10.50
2022-11-14T06:34:58.286Z,13.10
2022-11-14T06:35:58.261Z,17.50
2022-11-14T06:36:58.228Z,14.10
2022-11-14T06:37:58.227Z,10.90
2022-11-14T06:38:58.226Z,10.20
2022-11-14T06:39:58.250Z,11.80
2022-11-14T06:40:58.214Z,11.00
2022-11-14T06:41:58.176Z,11.30
2022-11-14T06:42:58.164Z,10.30
2022-11-14T06:43:58.163Z,12.70
2022-11-14T06:44:58.174Z,11.70
2022-11-14T06:45:58.147Z,11.90
2022-11-14T06:46:58.126Z,12.20
2022-11-14T06:47:58.114Z,11.20
2022-11-14T06:48:58.112Z,12.20
2022-11-14T06:49:58.123Z,10.30
2022-11-14T06:50:58.215Z,11.10
2022-11-14T06:51:58.131Z,10.90
2022-11-14T06:52:58.182Z,11.10
2022-11-14T06:53:58.058Z,10.40
2022-11-14T06:54:58.115Z,12.10
2022-11-14T06:55:58.116Z,11.90
2022-11-14T06:56:58.079Z,12.00
2022-11-14T06:57:58.187Z,10.60
2022-11-14T06:58:58.024Z,12.40
2022-11-14T06:59:58.006Z,11.90
2022-11-14T07:00:58.172Z,11.20
2022-11-14T07:01:58.002Z,11.70
2022-11-14T07:02:58.036Z,10.20
2022-11-14T07:03:57.984Z,10.90
2022-11-14T07:04:58.013Z,11.20
2022-11-14T07:05:58.072Z,11.70
2022-11-14T07:06:58.148Z,11.80
2022-11-14T07:07:58.055Z,12.80
2022-11-14T07:08:57.943Z,11.10
2022-11-14T07:09:58.009Z,11.30
2022-11-14T07:10:57.950Z,11.50
2022-11-14T07:12:03.937Z,10.60
2022-11-14T07:12:57.852Z,11.20
2022-11-14T07:13:58.558Z,10.40
2022-11-14T07:14:57.852Z,11.60
2022-11-14T07:15:57.873Z,12.20
2022-11-14T07:16:57.852Z,10.40
2022-11-14T07:17:57.800Z,10.60
2022-11-14T07:18:57.816Z,11.70
2022-11-14T07:19:57.771Z,10.20
2022-11-14T07:20:57.792Z,11.20
2022-11-14T07:21:57.758Z,11.70
2022-11-14T07:22:57.770Z,11.20
2022-11-14T07:23:57.742Z,12.00
2022-11-14T07:24:57.746Z,10.80
2022-11-14T07:25:57.752Z,9.70
2022-11-14T07:26:57.742Z,10.50
2022-11-14T07:27:57.692Z,11.70
2022-11-14T07:29:02.129Z,10.90
2022-11-14T07:29:57.736Z,10.70
2022-11-14T07:30:57.673Z,12.40
2022-11-14T07:31:57.652Z,10.30
2022-11-14T07:32:57.656Z,11.80
2022-11-14T07:33:57.651Z,11.60
2022-11-14T07:35:01.863Z,11.10
2022-11-14T07:35:57.633Z,12.00
2022-11-14T07:36:57.603Z,11.40
2022-11-14T07:37:57.629Z,10.90
2022-11-14T07:38:57.582Z,11.80
2022-11-14T07:39:57.588Z,10.70
2022-11-14T07:40:59.984Z,10.30
2022-11-14T07:41:57.589Z,10.70
2022-11-14T07:42:57.540Z,10.50
2022-11-14T07:43:57.522Z,10.70
2022-11-14T07:44:57.523Z,10.80
2022-11-14T07:45:57.522Z,11.70
2022-11-14T07:46:57.500Z,10.60
2022-11-14T07:47:57.492Z,10.70
2022-11-14T07:48:57.480Z,10.40
2022-11-14T07:49:57.474Z,10.40
2022-11-14T07:50:57.475Z,10.20
2022-11-14T07:51:57.439Z,10.60
2022-11-14T07:52:57.510Z,11.00
2022-11-14T07:53:57.426Z,10.20
2022-11-14T07:54:57.469Z,9.80
2022-11-14T07:55:57.511Z,11.10
2022-11-14T07:56:57.415Z,9.90
2022-11-14T07:57:57.406Z,11.70
2022-11-14T07:58:57.453Z,11.00
2022-11-14T07:59:57.364Z,10.70
2022-11-14T08:00:57.489Z,12.40
2022-11-14T08:01:57.365Z,11.80
2022-11-14T08:02:57.375Z,10.90
2022-11-14T08:03:57.369Z,11.70
2022-11-14T08:04:57.338Z,10.60
2022-11-14T08:05:57.319Z,11.60
2022-11-14T08:06:57.370Z,11.00
2022-11-14T08:07:57.276Z,11.30
2022-11-14T08:08:57.281Z,11.00
2022-11-14T08:09:57.257Z,11.40
2022-11-14T08:10:57.337Z,11.60
2022-11-14T08:11:57.228Z,11.60
2022-11-14T08:13:24.804Z,11.20
2022-11-14T08:13:57.212Z,10.80
2022-11-14T08:14:57.223Z,11.30
2022-11-14T08:15:57.205Z,11.90
2022-11-14T08:16:57.196Z,11.10
2022-11-14T08:17:57.171Z,11.60
2022-11-14T08:18:57.191Z,11.10
2022-11-14T08:19:57.148Z,11.80
2022-11-14T08:20:57.209Z,10.40
2022-11-14T08:21:57.127Z,10.80
2022-11-14T08:22:57.143Z,10.30
2022-11-14T08:23:57.110Z,10.60
2022-11-14T08:24:57.179Z,10.60
2022-11-14T08:25:57.090Z,12.10
2022-11-14T08:26:57.144Z,12.00
2022-11-14T08:27:57.067Z,10.40
2022-11-14T08:28:57.076Z,11.40
2022-11-14T08:29:57.055Z,10.30
2022-11-14T08:30:57.056Z,10.20
2022-11-14T08:31:59.963Z,11.00
2022-11-14T08:32:57.012Z,9.80
2022-11-14T08:33:57.012Z,10.30
2022-11-14T08:34:56.988Z,9.90
2022-11-14T08:35:56.991Z,11.10
2022-11-14T08:36:56.968Z,11.50
2022-11-14T08:37:56.963Z,11.40
2022-11-14T08:39:01.620Z,11.00
2022-11-14T08:39:56.952Z,10.20
2022-11-14T08:40:56.944Z,10.50
2022-11-14T08:41:56.922Z,10.00
2022-11-14T08:42:56.905Z,10.70
2022-11-14T08:43:56.908Z,9.30
2022-11-14T08:44:56.886Z,10.40
2022-11-14T08:46:01.068Z,10.90
2022-11-14T08:46:56.872Z,10.20
2022-11-14T08:47:56.882Z,10.80
2022-11-14T08:48:56.869Z,8.90
2022-11-14T08:49:56.840Z,9.80
2022-11-14T08:50:56.881Z,9.90
2022-11-14T08:51:56.823Z,9.50
2022-11-14T08:52:56.802Z,9.90
2022-11-14T08:53:56.797Z,10.40
2022-11-14T08:54:56.793Z,10.70
2022-11-14T08:55:56.792Z,10.00
2022-11-14T08:56:56.772Z,10.00
2022-11-14T08:57:56.767Z,10.30
2022-11-14T08:58:56.741Z,10.30
2022-11-14T08:59:56.739Z,11.20
2022-11-14T09:00:56.725Z,9.40
2022-11-14T09:01:56.722Z,10.40
2022-11-14T09:02:56.789Z,11.00
2022-11-14T09:03:59.875Z,10.10
2022-11-14T09:04:56.737Z,10.70
2022-11-14T09:05:56.684Z,10.30
2022-11-14T09:06:56.699Z,11.10
2022-11-14T09:07:56.647Z,10.60
2022-11-14T09:08:56.640Z,10.70
2022-11-14T09:09:56.622Z,10.60
2022-11-14T09:11:00.227Z,9.40
2022-11-14T09:11:56.614Z,9.40
2022-11-14T09:12:56.593Z,10.20
2022-11-14T09:13:56.617Z,11.10
2022-11-14T09:14:56.570Z,9.60
2022-11-14T09:15:56.598Z,9.20
2022-11-14T09:16:56.545Z,11.00
2022-11-14T09:17:56.566Z,10.50
2022-11-14T09:18:56.530Z,9.80
2022-11-14T09:19:56.529Z,10.20
2022-11-14T09:20:56.515Z,10.20
2022-11-14T09:21:56.601Z,9.50
2022-11-14T09:22:56.490Z,10.20
2022-11-14T09:24:00.652Z,10.50
2022-11-14T09:24:56.478Z,9.80
2022-11-14T09:25:56.546Z,9.60
2022-11-14T09:26:57.280Z,9.90
2022-11-14T09:27:56.438Z,11.00
2022-11-14T09:28:56.417Z,10.30
2022-11-14T09:29:56.514Z,9.00
2022-11-14T09:30:56.424Z,10.60
2022-11-14T09:31:56.414Z,10.10
2022-11-14T09:32:56.380Z,9.70
2022-11-14T09:33:56.391Z,9.30
2022-11-14T09:34:56.369Z,8.70
2022-11-14T09:35:56.464Z,9.70
2022-11-14T09:36:56.349Z,9.30
2022-11-14T09:37:56.377Z,9.40
2022-11-14T09:38:56.311Z,9.90
2022-11-14T09:39:56.357Z,8.90
2022-11-14T09:40:56.327Z,9.00
2022-11-14T09:41:56.327Z,9.60
2022-11-14T09:42:56.296Z,10.20
2022-11-14T09:43:56.289Z,9.50
2022-11-14T09:44:56.271Z,8.70
2022-11-14T09:45:56.301Z,9.90
2022-11-14T09:46:56.241Z,9.50
2022-11-14T09:47:56.347Z,8.90
2022-11-14T09:48:56.205Z,9.20
2022-11-14T09:49:56.290Z,9.10
2022-11-14T09:50:56.244Z,9.60
2022-11-14T09:51:56.209Z,10.60
2022-11-14T09:52:56.188Z,9.50
2022-11-14T09:53:56.160Z,9.30
2022-11-14T09:54:56.151Z,9.60
2022-11-14T09:55:56.149Z,9.60
2022-11-14T09:56:56.128Z,10.50
2022-11-14T09:57:56.115Z,9.50
2022-11-14T09:58:56.105Z,9.00
2022-11-14T09:59:56.094Z,9.10
2022-11-14T10:00:56.087Z,10.30
2022-11-14T10:01:56.131Z,10.60
2022-11-14T10:02:56.096Z,9.30
2022-11-14T10:03:56.054Z,9.90
2022-11-14T10:04:56.046Z,8.50
2022-11-14T10:05:56.058Z,9.80
2022-11-14T10:06:56.066Z,9.50
2022-11-14T10:07:56.031Z,9.80
2022-11-14T10:08:56.010Z,9.90
2022-11-14T10:09:56.016Z,9.40
2022-11-14T10:10:55.993Z,10.10
2022-11-14T10:11:55.999Z,9.50
2022-11-14T10:12:55.954Z,9.40
2022-11-14T10:13:55.960Z,9.10
2022-11-14T10:14:55.954Z,8.80
2022-11-14T10:15:55.950Z,9.60
2022-11-14T10:16:55.914Z,8.80
2022-11-14T10:17:55.916Z,9.30
2022-11-14T10:18:55.893Z,9.20
2022-11-14T10:19:55.891Z,10.20
2022-11-14T10:20:55.888Z,9.70
2022-11-14T10:21:55.879Z,8.90
2022-11-14T10:23:01.029Z,8.70
2022-11-14T10:23:55.883Z,9.40
2022-11-14T10:24:55.848Z,10.10
2022-11-14T10:25:55.952Z,9.30
2022-11-14T10:26:55.822Z,8.40
2022-11-14T10:27:58.600Z,10.20
2022-11-14T10:28:55.803Z,9.10
2022-11-14T10:29:55.787Z,14.30
2022-11-14T10:30:55.789Z,9.00
2022-11-14T10:31:55.756Z,8.70
2022-11-14T10:32:55.751Z,9.00
2022-11-14T10:33:55.747Z,9.10
2022-11-14T10:34:55.732Z,9.20
2022-11-14T10:35:55.735Z,8.80
2022-11-14T10:36:55.713Z,8.70
2022-11-14T10:37:55.697Z,8.90
2022-11-14T10:38:55.679Z,9.10
2022-11-14T10:39:55.741Z,8.70
2022-11-14T10:40:55.668Z,9.30
2022-11-14T10:41:58.819Z,9.50
2022-11-14T10:42:55.641Z,8.00
2022-11-14T10:43:55.641Z,9.40
2022-11-14T10:44:55.619Z,8.30
2022-11-14T10:45:55.620Z,9.00
2022-11-14T10:46:55.601Z,8.60
2022-11-14T10:47:55.593Z,11.10
2022-11-14T10:49:00.080Z,11.90
2022-11-14T10:49:55.593Z,8.90
2022-11-14T10:50:55.587Z,9.40
2022-11-14T10:51:55.550Z,9.40
2022-11-14T10:52:55.536Z,9.40
2022-11-14T10:53:55.546Z,8.70
2022-11-14T10:54:55.515Z,8.80
2022-11-14T10:56:04.302Z,9.50
2022-11-14T10:56:55.495Z,8.50
2022-11-14T10:57:55.486Z,8.50
2022-11-14T10:58:55.477Z,9.40
2022-11-14T10:59:55.463Z,9.00
2022-11-14T11:00:55.544Z,8.80
2022-11-14T11:01:55.457Z,8.80
2022-11-14T11:02:55.425Z,8.70
2022-11-14T11:03:55.550Z,8.80
2022-11-14T11:04:55.409Z,8.20
2022-11-14T11:05:55.437Z,8.60
2022-11-14T11:06:55.436Z,8.90
2022-11-14T11:07:55.415Z,8.80
2022-11-14T11:08:55.438Z,8.80
2022-11-14T11:09:55.403Z,8.60
2022-11-14T11:10:55.352Z,8.70
2022-11-14T11:11:55.331Z,9.10
2022-11-14T11:12:55.417Z,9.40
2022-11-14T11:13:55.329Z,9.30
2022-11-14T11:14:55.301Z,8.20
2022-11-14T11:15:55.304Z,8.70
2022-11-14T11:16:55.292Z,8.50
2022-11-14T11:17:55.289Z,9.00
2022-11-14T11:18:55.340Z,8.30
2022-11-14T11:19:55.261Z,8.50
2022-11-14T11:20:55.351Z,8.60
2022-11-14T11:21:55.265Z,9.20
2022-11-14T11:22:58.524Z,8.30
2022-11-14T11:23:55.242Z,8.20
2022-11-14T11:24:55.194Z,7.70
2022-11-14T11:25:55.200Z,9.20
2022-11-14T11:26:55.226Z,9.00
2022-11-14T11:27:55.166Z,8.10
2022-11-14T11:28:55.148Z,11.60
2022-11-14T11:29:55.147Z,10.00
2022-11-14T11:30:55.145Z,8.60
2022-11-14T11:31:55.135Z,7.70
2022-11-14T11:32:55.150Z,8.70
2022-11-14T11:33:55.101Z,8.70
2022-11-14T11:34:55.086Z,8.10
2022-11-14T11:35:55.103Z,9.10
2022-11-14T11:36:55.072Z,8.30
2022-11-14T11:37:55.062Z,9.60
2022-11-14T11:38:55.046Z,8.40
2022-11-14T11:39:55.049Z,9.10
2022-11-14T11:40:55.056Z,9.70
2022-11-14T11:42:10.994Z,7.90
2022-11-14T11:43:57.077Z,8.10
2022-11-14T11:44:54.985Z,8.30
2022-11-14T11:45:55.043Z,8.70
2022-11-14T11:46:54.988Z,8.90
2022-11-14T11:47:54.950Z,9.40
2022-11-14T11:48:54.941Z,9.10
2022-11-14T11:49:55.063Z,7.50
2022-11-14T11:50:54.922Z,8.40
2022-11-14T11:51:54.934Z,8.20
2022-11-14T11:52:54.889Z,7.90
2022-11-14T11:53:54.894Z,7.70
2022-11-14T11:54:54.896Z,7.70
2022-11-14T11:55:54.880Z,7.60
2022-11-14T11:56:54.855Z,9.40
2022-11-14T11:57:54.856Z,7.50
2022-11-14T11:58:54.833Z,9.30
2022-11-14T11:59:54.828Z,8.00
2022-11-14T12:00:54.824Z,8.30
2022-11-14T12:01:54.841Z,8.40
2022-11-14T12:02:54.901Z,7.60
2022-11-14T12:03:54.847Z,8.80
2022-11-14T12:04:54.772Z,7.60
2022-11-14T12:05:54.776Z,7.40
2022-11-14T12:06:54.772Z,8.30
2022-11-14T12:07:54.742Z,8.40
2022-11-14T12:08:54.735Z,7.50
2022-11-14T12:10:11.080Z,8.30
2022-11-14T12:10:54.738Z,8.40
2022-11-14T12:11:54.703Z,7.40
2022-11-14T12:12:54.683Z,8.10
2022-11-14T12:13:54.706Z,8.10
2022-11-14T12:14:54.658Z,6.70
2022-11-14T12:15:54.664Z,7.40
2022-11-14T12:16:54.649Z,7.90
2022-11-14T12:17:54.642Z,7.00
2022-11-14T12:18:54.620Z,7.40
2022-11-14T12:19:54.626Z,7.80
2022-11-14T12:20:54.611Z,6.50
2022-11-14T12:21:58.685Z,7.00
2022-11-14T12:22:54.572Z,7.60
2022-11-14T12:23:54.570Z,6.70
2022-11-14T12:24:54.577Z,7.70
2022-11-14T12:25:54.665Z,7.70
2022-11-14T12:26:54.535Z,8.00
2022-11-14T12:27:54.621Z,6.00
2022-11-14T12:28:54.509Z,7.40
2022-11-14T12:29:54.503Z,6.90
2022-11-14T12:30:54.518Z,7.20
2022-11-14T12:31:54.485Z,7.60
2022-11-14T12:32:54.496Z,7.20
2022-11-14T12:33:54.464Z,7.40
2022-11-14T12:34:54.545Z,7.10
2022-11-14T12:35:54.457Z,7.60
2022-11-14T12:36:54.456Z,8.10
2022-11-14T12:37:56.038Z,7.30
2022-11-14T12:38:54.409Z,7.20
2022-11-14T12:39:54.407Z,7.30
2022-11-14T12:40:54.431Z,6.70
2022-11-14T12:41:54.381Z,8.10
2022-11-14T12:42:54.360Z,8.20
2022-11-14T12:43:54.396Z,7.60
2022-11-14T12:44:54.356Z,8.00
2022-11-14T12:45:54.336Z,8.30
2022-11-14T12:46:54.321Z,7.30
2022-11-14T12:47:54.324Z,7.00
2022-11-14T12:48:54.306Z,7.10
2022-11-14T12:49:54.290Z,7.10
2022-11-14T12:50:54.318Z,7.40
2022-11-14T12:51:54.268Z,7.00
2022-11-14T12:52:54.264Z,7.30
2022-11-14T12:53:54.263Z,7.70
2022-11-14T12:54:54.240Z,7.10
2022-11-14T12:55:54.238Z,7.30
2022-11-14T12:56:54.386Z,7.20
2022-11-14T12:57:54.207Z,7.70
2022-11-14T12:58:54.205Z,7.10
2022-11-14T12:59:54.190Z,6.80